sensor_id;sensor_type;location;lat;lon;timestamp;temperature;humidity
12815;DHT22;6472;52.328;13.070;2022-11-20T00:02:18;-0.90;99.90
12815;DHT22;6472;52.328;13.070;2022-11-20T00:04:48;-0.80;99.90
12815;DHT22;6472;52.328;13.070;2022-11-20T00:07:23;-1.00;99.90
12815;DHT22;6472;52.328;13.070;2022-11-20T00:10:06;-1.00;99.90
12815;DHT22;6472;52.328;13.070;2022-11-20T00:12:38;-1.10;99.90
12815;DHT22;6472;52.328;13.070;2022-11-20T00:15:30;-1.00;99.90
12815;DHT22;6472;52.328;13.070;2022-11-20T00:18:26;-1.00;99.90
12815;DHT22;6472;52.328;13.070;2022-11-20T00:21:17;-1.10;99.90
12815;DHT22;6472;52.328;13.070;2022-11-20T00:23:56;-1.10;99.90
12815;DHT22;6472;52.328;13.070;2022-11-20T00:26:35;-1.00;99.90
12815;DHT22;6472;52.328;13.070;2022-11-20T00:29:10;-1.10;99.90
12815;DHT22;6472;52.328;13.070;2022-11-20T00:32:26;-1.10;99.90
12815;DHT22;6472;52.328;13.070;2022-11-20T00:49:39;-1.30;99.90
12815;DHT22;6472;52.328;13.070;2022-11-20T00:52:08;-1.40;99.90
12815;DHT22;6472;52.328;13.070;2022-11-20T00:54:36;-1.50;99.90
12815;DHT22;6472;52.328;13.070;2022-11-20T00:57:04;-1.50;99.90
12815;DHT22;6472;52.328;13.070;2022-11-20T00:59:32;-1.60;99.90
12815;DHT22;6472;52.328;13.070;2022-11-20T01:02:00;-1.60;99.90
12815;DHT22;6472;52.328;13.070;2022-11-20T01:04:28;-1.70;99.90
12815;DHT22;6472;52.328;13.070;2022-11-20T01:06:58;-1.70;99.90
12815;DHT22;6472;52.328;13.070;2022-11-20T01:09:26;-1.70;99.90
12815;DHT22;6472;52.328;13.070;2022-11-20T01:11:54;-1.70;99.90
12815;DHT22;6472;52.328;13.070;2022-11-20T01:14:22;-1.80;99.90
12815;DHT22;6472;52.328;13.070;2022-11-20T01:16:51;-1.90;99.90
12815;DHT22;6472;52.328;13.070;2022-11-20T01:19:21;-1.90;99.90
12815;DHT22;6472;52.328;13.070;2022-11-20T01:21:53;-2.00;99.90
12815;DHT22;6472;52.328;13.070;2022-11-20T01:24:23;-2.10;99.90
12815;DHT22;6472;52.328;13.070;2022-11-20T01:26:51;-2.20;99.90
12815;DHT22;6472;52.328;13.070;2022-11-20T01:29:21;-2.20;99.90
12815;DHT22;6472;52.328;13.070;2022-11-20T01:31:50;-2.30;99.90
12815;DHT22;6472;52.328;13.070;2022-11-20T01:34:20;-2.40;99.90
12815;DHT22;6472;52.328;13.070;2022-11-20T01:36:49;-2.50;99.90
12815;DHT22;6472;52.328;13.070;2022-11-20T01:39:19;-2.50;99.90
12815;DHT22;6472;52.328;13.070;2022-11-20T01:41:51;-2.60;99.90
12815;DHT22;6472;52.328;13.070;2022-11-20T01:44:48;-2.70;99.90
12815;DHT22;6472;52.328;13.070;2022-11-20T01:47:21;-2.70;99.90
12815;DHT22;6472;52.328;13.070;2022-11-20T01:49:54;-2.80;99.90
12815;DHT22;6472;52.328;13.070;2022-11-20T01:52:27;-2.80;99.90
12815;DHT22;6472;52.328;13.070;2022-11-20T01:55:01;-2.90;99.90
12815;DHT22;6472;52.328;13.070;2022-11-20T01:57:33;-2.90;99.90
12815;DHT22;6472;52.328;13.070;2022-11-20T02:00:04;-3.00;99.90
12815;DHT22;6472;52.328;13.070;2022-11-20T02:02:33;-3.00;99.90
12815;DHT22;6472;52.328;13.070;2022-11-20T02:05:07;-3.00;99.90
12815;DHT22;6472;52.328;13.070;2022-11-20T02:07:37;-3.10;99.90
12815;DHT22;6472;52.328;13.070;2022-11-20T02:10:06;-3.10;99.90
12815;DHT22;6472;52.328;13.070;2022-11-20T02:12:35;-3.10;99.90
12815;DHT22;6472;52.328;13.070;2022-11-20T02:15:21;-3.10;99.90
12815;DHT22;6472;52.328;13.070;2022-11-20T02:17:55;-3.20;99.90
12815;DHT22;6472;52.328;13.070;2022-11-20T02:20:24;-3.20;99.90
12815;DHT22;6472;52.328;13.070;2022-11-20T02:22:56;-3.20;99.90
12815;DHT22;6472;52.328;13.070;2022-11-20T02:25:28;-3.20;99.90
12815;DHT22;6472;52.328;13.070;2022-11-20T02:27:57;-3.30;99.90
12815;DHT22;6472;52.328;13.070;2022-11-20T02:30:25;-3.30;99.90
12815;DHT22;6472;52.328;13.070;2022-11-20T02:32:53;-3.30;99.90
12815;DHT22;6472;52.328;13.070;2022-11-20T02:35:41;-3.30;99.90
12815;DHT22;6472;52.328;13.070;2022-11-20T02:38:09;-3.30;99.90
12815;DHT22;6472;52.328;13.070;2022-11-20T02:40:39;-3.20;99.90
12815;DHT22;6472;52.328;13.070;2022-11-20T02:43:07;-3.20;99.90
12815;DHT22;6472;52.328;13.070;2022-11-20T02:45:36;-3.10;99.90
12815;DHT22;6472;52.328;13.070;2022-11-20T02:48:06;-3.10;99.90
12815;DHT22;6472;52.328;13.070;2022-11-20T02:50:37;-3.10;99.90
12815;DHT22;6472;52.328;13.070;2022-11-20T02:53:05;-3.10;99.90
12815;DHT22;6472;52.328;13.070;2022-11-20T02:55:34;-3.00;99.90
12815;DHT22;6472;52.328;13.070;2022-11-20T02:58:04;-3.00;99.90
12815;DHT22;6472;52.328;13.070;2022-11-20T03:00:32;-3.00;99.90
12815;DHT22;6472;52.328;13.070;2022-11-20T03:03:00;-2.90;99.90
12815;DHT22;6472;52.328;13.070;2022-11-20T03:05:28;-2.90;99.90
12815;DHT22;6472;52.328;13.070;2022-11-20T03:07:56;-2.80;99.90
12815;DHT22;6472;52.328;13.070;2022-11-20T03:10:24;-2.80;99.90
12815;DHT22;6472;52.328;13.070;2022-11-20T03:12:53;-2.80;99.90
12815;DHT22;6472;52.328;13.070;2022-11-20T03:15:24;-2.70;99.90
12815;DHT22;6472;52.328;13.070;2022-11-20T03:17:53;-2.70;99.90
12815;DHT22;6472;52.328;13.070;2022-11-20T03:20:22;-2.70;99.90
12815;DHT22;6472;52.328;13.070;2022-11-20T03:22:50;-2.60;99.90
12815;DHT22;6472;52.328;13.070;2022-11-20T03:25:18;-2.60;99.90
12815;DHT22;6472;52.328;13.070;2022-11-20T03:27:46;-2.50;99.90
12815;DHT22;6472;52.328;13.070;2022-11-20T03:30:14;-2.50;99.90
12815;DHT22;6472;52.328;13.070;2022-11-20T03:32:44;-2.50;99.90
12815;DHT22;6472;52.328;13.070;2022-11-20T03:35:12;-2.50;99.90
12815;DHT22;6472;52.328;13.070;2022-11-20T03:37:40;-2.50;99.90
12815;DHT22;6472;52.328;13.070;2022-11-20T03:42:35;-2.40;99.90
12815;DHT22;6472;52.328;13.070;2022-11-20T03:45:17;-2.40;99.90
12815;DHT22;6472;52.328;13.070;2022-11-20T03:47:47;-2.40;99.90
12815;DHT22;6472;52.328;13.070;2022-11-20T03:50:17;-2.30;99.90
12815;DHT22;6472;52.328;13.070;2022-11-20T03:52:45;-2.30;99.90
12815;DHT22;6472;52.328;13.070;2022-11-20T03:55:13;-2.20;99.90
12815;DHT22;6472;52.328;13.070;2022-11-20T03:57:41;-2.20;99.90
12815;DHT22;6472;52.328;13.070;2022-11-20T04:00:10;-2.20;99.90
12815;DHT22;6472;52.328;13.070;2022-11-20T04:02:39;-2.20;99.90
12815;DHT22;6472;52.328;13.070;2022-11-20T04:05:08;-2.10;99.90
12815;DHT22;6472;52.328;13.070;2022-11-20T04:07:36;-2.10;99.90
12815;DHT22;6472;52.328;13.070;2022-11-20T04:10:05;-2.10;99.90
12815;DHT22;6472;52.328;13.070;2022-11-20T04:12:33;-2.00;99.90
12815;DHT22;6472;52.328;13.070;2022-11-20T04:15:01;-2.00;99.90
12815;DHT22;6472;52.328;13.070;2022-11-20T04:17:29;-2.00;99.90
12815;DHT22;6472;52.328;13.070;2022-11-20T04:19:58;-2.00;99.90
12815;DHT22;6472;52.328;13.070;2022-11-20T04:22:27;-2.00;99.90
12815;DHT22;6472;52.328;13.070;2022-11-20T04:24:55;-1.90;99.90
12815;DHT22;6472;52.328;13.070;2022-11-20T04:27:23;-1.90;99.90
12815;DHT22;6472;52.328;13.070;2022-11-20T04:29:51;-1.90;99.90
12815;DHT22;6472;52.328;13.070;2022-11-20T04:32:20;-1.90;99.90
12815;DHT22;6472;52.328;13.070;2022-11-20T04:34:48;-1.90;99.90
12815;DHT22;6472;52.328;13.070;2022-11-20T04:37:17;-1.90;99.90
12815;DHT22;6472;52.328;13.070;2022-11-20T04:39:47;-1.80;99.90
12815;DHT22;6472;52.328;13.070;2022-11-20T04:42:15;-1.80;99.90
12815;DHT22;6472;52.328;13.070;2022-11-20T04:44:58;-1.80;99.90
12815;DHT22;6472;52.328;13.070;2022-11-20T04:47:26;-1.80;99.90
12815;DHT22;6472;52.328;13.070;2022-11-20T04:49:55;-1.80;99.90
12815;DHT22;6472;52.328;13.070;2022-11-20T04:52:23;-1.80;99.90
12815;DHT22;6472;52.328;13.070;2022-11-20T04:54:53;-1.80;99.90
12815;DHT22;6472;52.328;13.070;2022-11-20T04:57:22;-1.70;99.90
12815;DHT22;6472;52.328;13.070;2022-11-20T04:59:50;-1.70;99.90
12815;DHT22;6472;52.328;13.070;2022-11-20T05:02:18;-1.70;99.90
12815;DHT22;6472;52.328;13.070;2022-11-20T05:04:46;-1.70;99.90
12815;DHT22;6472;52.328;13.070;2022-11-20T05:07:15;-1.70;99.90
12815;DHT22;6472;52.328;13.070;2022-11-20T05:09:43;-1.70;99.90
12815;DHT22;6472;52.328;13.070;2022-11-20T05:12:16;-1.70;99.90
12815;DHT22;6472;52.328;13.070;2022-11-20T05:14:45;-1.60;99.90
12815;DHT22;6472;52.328;13.070;2022-11-20T05:17:13;-1.60;99.90
12815;DHT22;6472;52.328;13.070;2022-11-20T05:19:41;-1.60;99.90
12815;DHT22;6472;52.328;13.070;2022-11-20T05:22:09;-1.60;99.90
12815;DHT22;6472;52.328;13.070;2022-11-20T05:24:37;-1.60;99.90
12815;DHT22;6472;52.328;13.070;2022-11-20T05:27:05;-1.60;99.90
12815;DHT22;6472;52.328;13.070;2022-11-20T05:29:35;-1.60;99.90
12815;DHT22;6472;52.328;13.070;2022-11-20T05:32:04;-1.60;99.90
12815;DHT22;6472;52.328;13.070;2022-11-20T05:34:36;-1.50;99.90
12815;DHT22;6472;52.328;13.070;2022-11-20T05:37:04;-1.50;99.90
12815;DHT22;6472;52.328;13.070;2022-11-20T05:39:32;-1.60;99.90
12815;DHT22;6472;52.328;13.070;2022-11-20T05:42:02;-1.50;99.90
12815;DHT22;6472;52.328;13.070;2022-11-20T05:44:49;-1.50;99.90
12815;DHT22;6472;52.328;13.070;2022-11-20T05:47:18;-1.40;99.90
12815;DHT22;6472;52.328;13.070;2022-11-20T05:49:46;-1.50;99.90
12815;DHT22;6472;52.328;13.070;2022-11-20T05:52:14;-1.40;99.90
12815;DHT22;6472;52.328;13.070;2022-11-20T05:54:42;-1.50;99.90
12815;DHT22;6472;52.328;13.070;2022-11-20T05:57:10;-1.50;99.90
12815;DHT22;6472;52.328;13.070;2022-11-20T05:59:39;-1.30;99.90
12815;DHT22;6472;52.328;13.070;2022-11-20T06:02:08;-1.50;99.90
12815;DHT22;6472;52.328;13.070;2022-11-20T06:04:37;-1.50;99.90
12815;DHT22;6472;52.328;13.070;2022-11-20T06:07:07;-1.50;99.90
12815;DHT22;6472;52.328;13.070;2022-11-20T06:09:36;-1.60;99.90
12815;DHT22;6472;52.328;13.070;2022-11-20T06:12:04;-1.60;99.90
12815;DHT22;6472;52.328;13.070;2022-11-20T06:14:33;-1.60;99.90
12815;DHT22;6472;52.328;13.070;2022-11-20T06:17:01;-1.70;99.90
12815;DHT22;6472;52.328;13.070;2022-11-20T06:19:36;-1.70;99.90
12815;DHT22;6472;52.328;13.070;2022-11-20T06:22:04;-1.70;99.90
12815;DHT22;6472;52.328;13.070;2022-11-20T06:24:32;-1.70;99.90
12815;DHT22;6472;52.328;13.070;2022-11-20T06:27:00;-1.80;99.90
12815;DHT22;6472;52.328;13.070;2022-11-20T06:29:28;-1.80;99.90
12815;DHT22;6472;52.328;13.070;2022-11-20T06:31:59;-1.70;99.90
12815;DHT22;6472;52.328;13.070;2022-11-20T06:34:28;-1.80;99.90
12815;DHT22;6472;52.328;13.070;2022-11-20T06:36:58;-1.80;99.90
12815;DHT22;6472;52.328;13.070;2022-11-20T06:39:26;-1.80;99.90
12815;DHT22;6472;52.328;13.070;2022-11-20T06:41:55;-1.90;99.90
12815;DHT22;6472;52.328;13.070;2022-11-20T06:44:42;-1.90;99.90
12815;DHT22;6472;52.328;13.070;2022-11-20T06:47:10;-1.90;99.90
12815;DHT22;6472;52.328;13.070;2022-11-20T06:49:39;-1.90;99.90
12815;DHT22;6472;52.328;13.070;2022-11-20T06:52:11;-1.90;99.90
12815;DHT22;6472;52.328;13.070;2022-11-20T06:54:42;-1.90;99.90
12815;DHT22;6472;52.328;13.070;2022-11-20T06:57:20;-1.90;99.90
12815;DHT22;6472;52.328;13.070;2022-11-20T06:59:49;-1.80;99.90
12815;DHT22;6472;52.328;13.070;2022-11-20T07:02:19;-1.80;99.90
12815;DHT22;6472;52.328;13.070;2022-11-20T07:04:47;-1.80;99.90
12815;DHT22;6472;52.328;13.070;2022-11-20T07:07:18;-1.80;99.90
12815;DHT22;6472;52.328;13.070;2022-11-20T07:09:53;-1.70;99.90
12815;DHT22;6472;52.328;13.070;2022-11-20T07:12:21;-1.70;99.90
12815;DHT22;6472;52.328;13.070;2022-11-20T07:14:50;-1.70;99.90
12815;DHT22;6472;52.328;13.070;2022-11-20T07:17:21;-1.70;99.90
12815;DHT22;6472;52.328;13.070;2022-11-20T07:19:49;-1.60;99.90
12815;DHT22;6472;52.328;13.070;2022-11-20T07:22:19;-1.50;99.90
12815;DHT22;6472;52.328;13.070;2022-11-20T07:24:48;-1.50;99.90
12815;DHT22;6472;52.328;13.070;2022-11-20T07:27:16;-1.40;99.90
12815;DHT22;6472;52.328;13.070;2022-11-20T07:29:44;-1.40;99.90
12815;DHT22;6472;52.328;13.070;2022-11-20T07:32:12;-1.40;99.90
12815;DHT22;6472;52.328;13.070;2022-11-20T07:34:46;-1.40;99.90
12815;DHT22;6472;52.328;13.070;2022-11-20T07:37:24;-1.40;99.90
12815;DHT22;6472;52.328;13.070;2022-11-20T07:39:52;-1.30;99.90
12815;DHT22;6472;52.328;13.070;2022-11-20T07:42:27;-1.20;99.90
12815;DHT22;6472;52.328;13.070;2022-11-20T07:44:58;-1.20;99.90
12815;DHT22;6472;52.328;13.070;2022-11-20T07:47:37;-1.20;99.90
12815;DHT22;6472;52.328;13.070;2022-11-20T07:50:31;-1.10;99.90
12815;DHT22;6472;52.328;13.070;2022-11-20T07:53:19;-1.20;99.90
12815;DHT22;6472;52.328;13.070;2022-11-20T07:55:48;-1.10;99.90
12815;DHT22;6472;52.328;13.070;2022-11-20T07:58:25;-1.00;99.90
12815;DHT22;6472;52.328;13.070;2022-11-20T08:00:53;-0.90;99.90
12815;DHT22;6472;52.328;13.070;2022-11-20T08:03:41;-0.90;99.90
12815;DHT22;6472;52.328;13.070;2022-11-20T08:06:11;-0.90;99.90
12815;DHT22;6472;52.328;13.070;2022-11-20T08:08:42;-0.90;99.90
12815;DHT22;6472;52.328;13.070;2022-11-20T08:11:11;-0.80;99.90
12815;DHT22;6472;52.328;13.070;2022-11-20T08:14:11;-0.80;99.90
12815;DHT22;6472;52.328;13.070;2022-11-20T08:16:40;-0.60;99.90
12815;DHT22;6472;52.328;13.070;2022-11-20T08:19:11;-0.60;99.90
12815;DHT22;6472;52.328;13.070;2022-11-20T08:21:42;-0.60;99.90
12815;DHT22;6472;52.328;13.070;2022-11-20T08:24:14;-0.60;99.90
12815;DHT22;6472;52.328;13.070;2022-11-20T08:26:42;-0.60;99.90
12815;DHT22;6472;52.328;13.070;2022-11-20T08:29:10;-0.50;99.90
12815;DHT22;6472;52.328;13.070;2022-11-20T08:31:50;-0.50;99.90
12815;DHT22;6472;52.328;13.070;2022-11-20T08:34:19;-0.50;99.90
12815;DHT22;6472;52.328;13.070;2022-11-20T08:37:03;-0.40;99.90
12815;DHT22;6472;52.328;13.070;2022-11-20T08:39:33;-0.30;99.90
12815;DHT22;6472;52.328;13.070;2022-11-20T08:42:14;-0.30;99.90
12815;DHT22;6472;52.328;13.070;2022-11-20T08:44:59;-0.40;99.90
12815;DHT22;6472;52.328;13.070;2022-11-20T08:47:37;-0.30;99.90
12815;DHT22;6472;52.328;13.070;2022-11-20T08:50:09;-0.30;99.90
12815;DHT22;6472;52.328;13.070;2022-11-20T08:52:45;-0.30;99.90
12815;DHT22;6472;52.328;13.070;2022-11-20T08:55:28;-0.20;99.90
12815;DHT22;6472;52.328;13.070;2022-11-20T09:01:48;-0.30;99.90
12815;DHT22;6472;52.328;13.070;2022-11-20T09:07:16;-0.30;99.90
12815;DHT22;6472;52.328;13.070;2022-11-20T09:09:44;-0.40;99.90
12815;DHT22;6472;52.328;13.070;2022-11-20T09:12:36;-0.30;99.90
12815;DHT22;6472;52.328;13.070;2022-11-20T09:15:11;-0.20;99.90
12815;DHT22;6472;52.328;13.070;2022-11-20T09:17:53;-0.20;99.90
12815;DHT22;6472;52.328;13.070;2022-11-20T09:20:27;0.00;99.90
12815;DHT22;6472;52.328;13.070;2022-11-20T09:23:17;-0.10;99.90
12815;DHT22;6472;52.328;13.070;2022-11-20T09:25:52;-0.10;99.90
12815;DHT22;6472;52.328;13.070;2022-11-20T09:28:25;-0.10;99.90
12815;DHT22;6472;52.328;13.070;2022-11-20T09:30:56;-0.10;99.90
12815;DHT22;6472;52.328;13.070;2022-11-20T09:33:55;-0.10;99.90
12815;DHT22;6472;52.328;13.070;2022-11-20T09:36:25;0.00;99.90
12815;DHT22;6472;52.328;13.070;2022-11-20T09:39:37;0.00;99.90
12815;DHT22;6472;52.328;13.070;2022-11-20T09:42:39;0.20;99.90
12815;DHT22;6472;52.328;13.070;2022-11-20T09:45:20;0.20;99.90
12815;DHT22;6472;52.328;13.070;2022-11-20T09:48:12;0.20;99.90
12815;DHT22;6472;52.328;13.070;2022-11-20T09:50:45;0.30;99.90
12815;DHT22;6472;52.328;13.070;2022-11-20T09:53:22;0.30;99.90
12815;DHT22;6472;52.328;13.070;2022-11-20T09:55:51;0.30;99.90
12815;DHT22;6472;52.328;13.070;2022-11-20T09:58:27;0.40;99.90
12815;DHT22;6472;52.328;13.070;2022-11-20T10:01:05;0.40;99.90
12815;DHT22;6472;52.328;13.070;2022-11-20T10:03:42;0.40;99.90
12815;DHT22;6472;52.328;13.070;2022-11-20T10:06:17;0.40;99.90
12815;DHT22;6472;52.328;13.070;2022-11-20T10:08:51;0.40;99.90
12815;DHT22;6472;52.328;13.070;2022-11-20T10:11:29;0.50;99.90
12815;DHT22;6472;52.328;13.070;2022-11-20T10:14:10;0.50;99.90
12815;DHT22;6472;52.328;13.070;2022-11-20T10:16:51;0.50;99.90
12815;DHT22;6472;52.328;13.070;2022-11-20T10:22:30;0.60;99.90
12815;DHT22;6472;52.328;13.070;2022-11-20T10:25:06;0.60;99.90
12815;DHT22;6472;52.328;13.070;2022-11-20T10:27:57;0.70;99.90
12815;DHT22;6472;52.328;13.070;2022-11-20T10:30:31;0.70;99.90
12815;DHT22;6472;52.328;13.070;2022-11-20T10:33:09;0.70;99.90
12815;DHT22;6472;52.328;13.070;2022-11-20T10:35:44;0.70;99.90
12815;DHT22;6472;52.328;13.070;2022-11-20T10:38:15;0.70;99.90
12815;DHT22;6472;52.328;13.070;2022-11-20T10:40:47;0.70;99.90
12815;DHT22;6472;52.328;13.070;2022-11-20T10:43:19;0.80;99.90
12815;DHT22;6472;52.328;13.070;2022-11-20T10:45:53;0.80;99.90
12815;DHT22;6472;52.328;13.070;2022-11-20T10:48:26;0.90;99.90
12815;DHT22;6472;52.328;13.070;2022-11-20T10:51:12;1.00;99.90
12815;DHT22;6472;52.328;13.070;2022-11-20T10:53:59;1.10;99.90
12815;DHT22;6472;52.328;13.070;2022-11-20T10:56:38;1.30;99.90
12815;DHT22;6472;52.328;13.070;2022-11-20T10:59:46;1.40;99.90
12815;DHT22;6472;52.328;13.070;2022-11-20T11:02:20;1.50;99.90
12815;DHT22;6472;52.328;13.070;2022-11-20T11:04:51;1.60;99.90
12815;DHT22;6472;52.328;13.070;2022-11-20T11:07:23;1.70;99.90
12815;DHT22;6472;52.328;13.070;2022-11-20T11:09:54;1.70;99.90
12815;DHT22;6472;52.328;13.070;2022-11-20T11:12:24;1.80;99.90
12815;DHT22;6472;52.328;13.070;2022-11-20T11:14:54;1.80;99.90
12815;DHT22;6472;52.328;13.070;2022-11-20T11:17:25;2.00;99.90
12815;DHT22;6472;52.328;13.070;2022-11-20T11:20:04;2.10;99.90
12815;DHT22;6472;52.328;13.070;2022-11-20T11:22:34;2.10;99.90
12815;DHT22;6472;52.328;13.070;2022-11-20T11:25:02;2.20;99.90
12815;DHT22;6472;52.328;13.070;2022-11-20T11:27:30;2.30;99.90
12815;DHT22;6472;52.328;13.070;2022-11-20T11:30:11;2.30;99.90
12815;DHT22;6472;52.328;13.070;2022-11-20T11:32:40;2.30;99.90
12815;DHT22;6472;52.328;13.070;2022-11-20T11:35:21;2.30;99.90
12815;DHT22;6472;52.328;13.070;2022-11-20T11:37:50;2.20;99.90
12815;DHT22;6472;52.328;13.070;2022-11-20T11:40:21;2.30;99.90
12815;DHT22;6472;52.328;13.070;2022-11-20T11:42:56;2.20;99.90
12815;DHT22;6472;52.328;13.070;2022-11-20T11:45:25;2.30;99.90
12815;DHT22;6472;52.328;13.070;2022-11-20T11:47:54;2.30;99.90
12815;DHT22;6472;52.328;13.070;2022-11-20T11:50:25;2.40;99.90
12815;DHT22;6472;52.328;13.070;2022-11-20T11:52:58;2.40;99.90
12815;DHT22;6472;52.328;13.070;2022-11-20T11:55:31;2.40;99.90
12815;DHT22;6472;52.328;13.070;2022-11-20T11:58:14;2.40;99.90
12815;DHT22;6472;52.328;13.070;2022-11-20T12:00:51;2.30;99.90
12815;DHT22;6472;52.328;13.070;2022-11-20T12:03:24;2.30;99.90
12815;DHT22;6472;52.328;13.070;2022-11-20T12:05:58;2.30;99.90
12815;DHT22;6472;52.328;13.070;2022-11-20T12:08:31;2.20;99.90
12815;DHT22;6472;52.328;13.070;2022-11-20T12:11:04;2.10;99.90
12815;DHT22;6472;52.328;13.070;2022-11-20T12:13:42;2.00;99.90
12815;DHT22;6472;52.328;13.070;2022-11-20T12:16:13;1.90;99.90
12815;DHT22;6472;52.328;13.070;2022-11-20T12:18:42;1.90;99.90
12815;DHT22;6472;52.328;13.070;2022-11-20T12:21:19;1.80;99.90
12815;DHT22;6472;52.328;13.070;2022-11-20T12:23:56;1.80;99.90
12815;DHT22;6472;52.328;13.070;2022-11-20T12:26:35;1.70;99.90
12815;DHT22;6472;52.328;13.070;2022-11-20T12:29:12;1.60;99.90
12815;DHT22;6472;52.328;13.070;2022-11-20T12:31:52;1.50;99.90
12815;DHT22;6472;52.328;13.070;2022-11-20T12:34:52;1.60;99.90
12815;DHT22;6472;52.328;13.070;2022-11-20T12:37:33;1.60;99.90
12815;DHT22;6472;52.328;13.070;2022-11-20T12:40:17;1.60;99.90
12815;DHT22;6472;52.328;13.070;2022-11-20T12:42:59;1.60;99.90
12815;DHT22;6472;52.328;13.070;2022-11-20T12:46:02;1.70;99.90
12815;DHT22;6472;52.328;13.070;2022-11-20T12:48:42;1.70;99.90
12815;DHT22;6472;52.328;13.070;2022-11-20T12:51:31;1.70;99.90
12815;DHT22;6472;52.328;13.070;2022-11-20T12:54:24;1.60;99.90
12815;DHT22;6472;52.328;13.070;2022-11-20T12:57:00;1.50;99.90
12815;DHT22;6472;52.328;13.070;2022-11-20T12:59:47;1.40;99.90
12815;DHT22;6472;52.328;13.070;2022-11-20T13:02:25;1.50;99.90
12815;DHT22;6472;52.328;13.070;2022-11-20T13:05:05;1.40;99.90
12815;DHT22;6472;52.328;13.070;2022-11-20T13:07:35;1.40;99.90
12815;DHT22;6472;52.328;13.070;2022-11-20T13:10:06;1.40;99.90
12815;DHT22;6472;52.328;13.070;2022-11-20T13:12:45;1.40;99.90
12815;DHT22;6472;52.328;13.070;2022-11-20T13:15:21;1.40;99.90
12815;DHT22;6472;52.328;13.070;2022-11-20T13:17:55;1.40;99.90
12815;DHT22;6472;52.328;13.070;2022-11-20T13:20:25;1.40;99.90
12815;DHT22;6472;52.328;13.070;2022-11-20T13:22:55;1.40;99.90
12815;DHT22;6472;52.328;13.070;2022-11-20T13:25:26;1.40;99.90
12815;DHT22;6472;52.328;13.070;2022-11-20T13:27:55;1.50;99.90
12815;DHT22;6472;52.328;13.070;2022-11-20T13:30:24;1.50;99.90
12815;DHT22;6472;52.328;13.070;2022-11-20T13:32:53;1.60;99.90
12815;DHT22;6472;52.328;13.070;2022-11-20T13:35:28;1.50;99.90
12815;DHT22;6472;52.328;13.070;2022-11-20T13:38:01;1.60;99.90
12815;DHT22;6472;52.328;13.070;2022-11-20T13:40:31;1.50;99.90
12815;DHT22;6472;52.328;13.070;2022-11-20T13:43:10;1.40;99.90
12815;DHT22;6472;52.328;13.070;2022-11-20T13:45:42;1.40;99.90
12815;DHT22;6472;52.328;13.070;2022-11-20T13:48:24;1.40;99.90
12815;DHT22;6472;52.328;13.070;2022-11-20T13:51:11;1.30;99.90
12815;DHT22;6472;52.328;13.070;2022-11-20T13:54:11;1.30;99.90
12815;DHT22;6472;52.328;13.070;2022-11-20T13:56:51;1.20;99.90
12815;DHT22;6472;52.328;13.070;2022-11-20T13:59:42;1.20;99.90
12815;DHT22;6472;52.328;13.070;2022-11-20T14:02:16;1.20;99.90
12815;DHT22;6472;52.328;13.070;2022-11-20T14:04:47;1.20;99.90
12815;DHT22;6472;52.328;13.070;2022-11-20T14:07:16;1.10;99.90
12815;DHT22;6472;52.328;13.070;2022-11-20T14:09:52;1.00;99.90
12815;DHT22;6472;52.328;13.070;2022-11-20T14:12:26;1.00;99.90
12815;DHT22;6472;52.328;13.070;2022-11-20T14:14:54;0.90;99.90
12815;DHT22;6472;52.328;13.070;2022-11-20T14:17:28;0.80;99.90
12815;DHT22;6472;52.328;13.070;2022-11-20T14:19:59;0.70;99.90
12815;DHT22;6472;52.328;13.070;2022-11-20T14:22:28;0.60;99.90
12815;DHT22;6472;52.328;13.070;2022-11-20T14:25:06;0.50;99.90
12815;DHT22;6472;52.328;13.070;2022-11-20T14:27:37;0.40;99.90
12815;DHT22;6472;52.328;13.070;2022-11-20T14:30:06;0.30;99.90
12815;DHT22;6472;52.328;13.070;2022-11-20T14:32:41;0.30;99.90
12815;DHT22;6472;52.328;13.070;2022-11-20T14:35:14;0.30;99.90
12815;DHT22;6472;52.328;13.070;2022-11-20T14:37:45;0.30;99.90
12815;DHT22;6472;52.328;13.070;2022-11-20T14:40:26;0.30;99.90
12815;DHT22;6472;52.328;13.070;2022-11-20T14:42:57;0.20;99.90
12815;DHT22;6472;52.328;13.070;2022-11-20T14:45:26;0.10;99.90
12815;DHT22;6472;52.328;13.070;2022-11-20T14:47:56;0.10;99.90
12815;DHT22;6472;52.328;13.070;2022-11-20T14:50:26;0.00;99.90
12815;DHT22;6472;52.328;13.070;2022-11-20T14:52:56;-0.10;99.90
12815;DHT22;6472;52.328;13.070;2022-11-20T14:55:26;-0.20;99.90
12815;DHT22;6472;52.328;13.070;2022-11-20T14:57:57;-0.40;99.90
12815;DHT22;6472;52.328;13.070;2022-11-20T15:00:25;-0.50;99.90
12815;DHT22;6472;52.328;13.070;2022-11-20T15:02:54;-0.60;99.90
12815;DHT22;6472;52.328;13.070;2022-11-20T15:05:24;-0.60;99.90
12815;DHT22;6472;52.328;13.070;2022-11-20T15:08:05;-0.70;99.90
12815;DHT22;6472;52.328;13.070;2022-11-20T15:10:34;-0.80;99.90
12815;DHT22;6472;52.328;13.070;2022-11-20T15:13:10;-0.80;99.90
12815;DHT22;6472;52.328;13.070;2022-11-20T15:15:43;-0.80;99.90
12815;DHT22;6472;52.328;13.070;2022-11-20T15:18:14;-0.80;99.90
12815;DHT22;6472;52.328;13.070;2022-11-20T15:20:43;-0.80;99.90
12815;DHT22;6472;52.328;13.070;2022-11-20T15:23:12;-0.80;99.90
12815;DHT22;6472;52.328;13.070;2022-11-20T15:25:41;-0.80;99.90
12815;DHT22;6472;52.328;13.070;2022-11-20T15:28:17;-0.80;99.90
12815;DHT22;6472;52.328;13.070;2022-11-20T15:30:47;-0.80;99.90
12815;DHT22;6472;52.328;13.070;2022-11-20T15:33:16;-0.80;99.90
12815;DHT22;6472;52.328;13.070;2022-11-20T15:35:44;-0.80;99.90
12815;DHT22;6472;52.328;13.070;2022-11-20T15:38:12;-0.80;99.90
12815;DHT22;6472;52.328;13.070;2022-11-20T15:40:40;-0.80;99.90
12815;DHT22;6472;52.328;13.070;2022-11-20T15:43:08;-0.80;99.90
12815;DHT22;6472;52.328;13.070;2022-11-20T15:45:42;-0.80;99.90
12815;DHT22;6472;52.328;13.070;2022-11-20T15:48:15;-0.80;99.90
12815;DHT22;6472;52.328;13.070;2022-11-20T15:50:49;-0.70;99.90
12815;DHT22;6472;52.328;13.070;2022-11-20T15:53:18;-0.70;99.90
12815;DHT22;6472;52.328;13.070;2022-11-20T15:55:47;-0.60;99.90
12815;DHT22;6472;52.328;13.070;2022-11-20T15:58:15;-0.60;99.90
12815;DHT22;6472;52.328;13.070;2022-11-20T16:00:45;-0.60;99.90
12815;DHT22;6472;52.328;13.070;2022-11-20T16:03:14;-0.60;99.90
12815;DHT22;6472;52.328;13.070;2022-11-20T16:05:43;-0.50;99.90
12815;DHT22;6472;52.328;13.070;2022-11-20T16:08:11;-0.50;99.90
12815;DHT22;6472;52.328;13.070;2022-11-20T16:10:39;-0.50;99.90
12815;DHT22;6472;52.328;13.070;2022-11-20T16:13:12;-0.50;99.90
12815;DHT22;6472;52.328;13.070;2022-11-20T16:16:02;-0.50;99.90
12815;DHT22;6472;52.328;13.070;2022-11-20T16:18:32;-0.50;99.90
12815;DHT22;6472;52.328;13.070;2022-11-20T16:21:00;-0.40;99.90
12815;DHT22;6472;52.328;13.070;2022-11-20T16:23:28;-0.40;99.90
12815;DHT22;6472;52.328;13.070;2022-11-20T16:25:57;-0.40;99.90
12815;DHT22;6472;52.328;13.070;2022-11-20T16:28:25;-0.40;99.90
12815;DHT22;6472;52.328;13.070;2022-11-20T16:30:53;-0.40;99.90
12815;DHT22;6472;52.328;13.070;2022-11-20T16:33:22;-0.30;99.90
12815;DHT22;6472;52.328;13.070;2022-11-20T16:35:50;-0.40;99.90
12815;DHT22;6472;52.328;13.070;2022-11-20T16:38:18;-0.50;99.90
12815;DHT22;6472;52.328;13.070;2022-11-20T16:40:46;-0.50;99.90